Time;durP1;ratioP1;P1;durP2;ratioP2;P2;SDS_P1;SDS_P2;PMS_P1;PMS_P2;Temp;Humidity;BMP_temperature;BMP_pressure;BME280_temperature;BME280_humidity;BME280_pressure;Samples;Min_cycle;Max_cycle;Signal;HPM_P1;HPM_P2
2021/12/12 00:00:13;;;;;;;28.25;22.33;;;;;21.20;101054.00;;;;2100462;28;20211;-63
2021/12/12 00:01:26;;;;;;;29.48;21.80;;;;;21.20;101045.00;;;;2099904;28;20208;-63
2021/12/12 00:02:44;;;;;;;27.75;21.95;;;;;21.20;101054.00;;;;2097245;28;20207;-62
2021/12/12 00:03:48;;;;;;;24.58;20.77;;;;;21.20;101047.00;;;;2091610;28;20217;-63
2021/12/12 00:04:49;;;;;;;26.38;21.02;;;;;21.20;101051.00;;;;2092320;28;20219;-63
2021/12/12 00:05:55;;;;;;;23.57;19.70;;;;;21.20;101042.00;;;;2100875;28;20216;-63
2021/12/12 00:06:56;;;;;;;25.48;20.60;;;;;21.20;101037.00;;;;2100380;28;20220;-63
2021/12/12 00:07:56;;;;;;;25.05;20.02;;;;;21.20;101041.00;;;;2100705;28;20208;-63
2021/12/12 00:09:19;;;;;;;27.90;20.27;;;;;21.20;101039.00;;;;2100909;28;20211;-63
2021/12/12 00:10:21;;;;;;;23.98;18.98;;;;;21.20;101033.00;;;;2098919;28;20575;-63
2021/12/12 00:11:25;;;;;;;26.23;18.88;;;;;21.20;101029.00;;;;2100343;28;20212;-63
2021/12/12 00:12:27;;;;;;;26.83;19.65;;;;;21.20;101035.00;;;;2097292;28;20218;-63
2021/12/12 00:13:32;;;;;;;23.20;17.95;;;;;21.20;101036.00;;;;2100539;28;20273;-63
2021/12/12 00:14:33;;;;;;;23.17;17.52;;;;;21.10;101037.00;;;;2102883;28;20222;-63
2021/12/12 00:15:33;;;;;;;22.95;18.50;;;;;21.20;101049.00;;;;2100449;28;20242;-63
2021/12/12 00:16:33;;;;;;;22.33;18.00;;;;;21.20;101048.00;;;;2100318;28;20683;-63
2021/12/12 00:17:34;;;;;;;22.90;16.90;;;;;21.10;101034.00;;;;2100454;28;20796;-63
2021/12/12 00:18:34;;;;;;;22.30;16.97;;;;;21.10;101045.00;;;;2100475;28;20299;-63
2021/12/12 00:19:35;;;;;;;22.80;17.33;;;;;21.10;101042.00;;;;2100509;28;20215;-63
2021/12/12 00:20:36;;;;;;;21.87;17.00;;;;;21.10;101039.00;;;;2091516;28;20712;-63
2021/12/12 00:21:36;;;;;;;25.80;18.43;;;;;21.10;101031.00;;;;2075385;28;20650;-63
2021/12/12 00:22:37;;;;;;;23.10;16.93;;;;;21.10;101031.00;;;;2083699;28;20732;-63
2021/12/12 00:23:37;;;;;;;20.20;15.93;;;;;21.10;101034.00;;;;2100783;28;20451;-63
2021/12/12 00:24:38;;;;;;;22.43;16.40;;;;;21.10;101033.00;;;;2100824;28;20569;-63
2021/12/12 00:25:41;;;;;;;20.80;16.07;;;;;21.10;101037.00;;;;2100823;28;20220;-63
2021/12/12 00:26:43;;;;;;;22.35;15.65;;;;;21.10;101030.00;;;;2090716;28;20458;-63
2021/12/12 00:27:44;;;;;;;18.00;14.75;;;;;21.10;101039.00;;;;2100166;28;20208;-63
2021/12/12 00:28:45;;;;;;;22.15;14.90;;;;;21.00;101036.00;;;;2099899;28;20215;-63
2021/12/12 00:29:45;;;;;;;17.10;12.97;;;;;21.10;101037.00;;;;2098874;28;20290;-63
2021/12/12 00:30:47;;;;;;;20.03;13.90;;;;;21.10;101034.00;;;;2099841;28;20768;-63
2021/12/12 00:31:50;;;;;;;19.70;15.50;;;;;21.10;101030.00;;;;2099850;28;20214;-63
2021/12/12 00:32:52;;;;;;;20.95;14.30;;;;;21.10;101035.00;;;;2100119;28;20223;-62
2021/12/12 00:33:54;;;;;;;16.90;13.77;;;;;21.00;101039.00;;;;2099951;28;20678;-62
2021/12/12 00:34:58;;;;;;;16.60;13.48;;;;;21.00;101032.00;;;;2099790;28;20314;-63
2021/12/12 00:35:58;;;;;;;18.27;13.65;;;;;21.00;101035.00;;;;2089808;28;20223;-63
2021/12/12 00:36:59;;;;;;;15.97;13.13;;;;;21.00;101035.00;;;;2090609;28;20350;-62
2021/12/12 00:38:02;;;;;;;18.47;13.20;;;;;21.00;101032.00;;;;2100275;28;20253;-63
2021/12/12 00:39:06;;;;;;;18.50;13.82;;;;;21.00;101035.00;;;;2090166;28;20980;-63
2021/12/12 00:40:21;;;;;;;16.83;13.05;;;;;21.00;101031.00;;;;2082934;28;20213;-63
2021/12/12 00:41:40;;;;;;;16.67;12.75;;;;;21.00;101030.00;;;;2083554;28;20727;-62
2021/12/12 00:42:41;;;;;;;15.85;12.23;;;;;21.00;101023.00;;;;2090765;28;20227;-63
2021/12/12 00:43:46;;;;;;;15.40;12.27;;;;;21.00;101027.00;;;;2081599;28;20601;-63
2021/12/12 00:44:48;;;;;;;17.55;12.93;;;;;21.00;101027.00;;;;2098772;28;20240;-63
2021/12/12 00:45:50;;;;;;;16.33;12.27;;;;;21.00;101026.00;;;;2100380;28;21029;-63
2021/12/12 00:46:50;;;;;;;15.27;11.52;;;;;21.00;101021.00;;;;2100274;28;20224;-63
2021/12/12 00:47:51;;;;;;;16.47;12.00;;;;;21.00;101019.00;;;;2100508;28;20428;-63
2021/12/12 00:48:51;;;;;;;15.77;11.60;;;;;21.00;101017.00;;;;2100640;28;20260;-63
2021/12/12 00:49:52;;;;;;;15.97;12.47;;;;;21.00;101013.00;;;;2100554;28;20218;-63
2021/12/12 00:50:52;;;;;;;12.93;11.20;;;;;21.00;101017.00;;;;2100194;28;20207;-63
2021/12/12 00:51:52;;;;;;;14.20;11.33;;;;;21.00;101019.00;;;;2100192;28;20280;-63
2021/12/12 00:52:53;;;;;;;12.50;10.93;;;;;21.00;101016.00;;;;2100326;28;20222;-63
2021/12/12 00:53:53;;;;;;;13.30;10.87;;;;;20.90;101011.00;;;;2100258;28;20223;-63
2021/12/12 00:54:53;;;;;;;13.40;10.57;;;;;21.00;101007.00;;;;2100181;28;20208;-63
2021/12/12 00:55:54;;;;;;;13.60;11.20;;;;;20.90;101014.00;;;;2100323;28;20264;-63
2021/12/12 00:56:54;;;;;;;13.23;10.23;;;;;20.90;101016.00;;;;2099805;28;20216;-63
2021/12/12 00:57:54;;;;;;;14.43;10.90;;;;;20.90;101009.00;;;;2100069;28;20222;-63
2021/12/12 00:58:55;;;;;;;15.07;10.17;;;;;20.90;101012.00;;;;2100117;28;20208;-63
2021/12/12 00:59:55;;;;;;;13.07;10.33;;;;;20.90;101005.00;;;;2100220;28;20247;-63
2021/12/12 01:01:04;;;;;;;12.57;9.43;;;;;20.90;101013.00;;;;2091011;28;20213;-63
2021/12/12 01:02:06;;;;;;;12.13;10.05;;;;;20.90;101011.00;;;;2080552;28;20224;-63
2021/12/12 01:03:08;;;;;;;11.88;9.32;;;;;20.90;101009.00;;;;2083101;28;20260;-63
2021/12/12 01:04:12;;;;;;;12.70;9.13;;;;;20.90;101007.00;;;;2091256;28;20234;-63
2021/12/12 01:05:13;;;;;;;13.35;9.88;;;;;20.90;100996.00;;;;2091514;28;20217;-64
2021/12/12 01:06:13;;;;;;;12.93;9.40;;;;;20.90;101008.00;;;;2100254;28;20575;-63
2021/12/12 01:07:28;;;;;;;11.47;8.93;;;;;20.90;100994.00;;;;2090846;28;20867;-64
2021/12/12 01:08:28;;;;;;;9.77;8.70;;;;;20.90;101004.00;;;;2093597;28;20221;-64
2021/12/12 01:09:31;;;;;;;10.73;8.70;;;;;20.90;101003.00;;;;2100428;28;20211;-64
2021/12/12 01:11:02;;;;;;;10.30;8.27;;;;;20.90;101002.00;;;;2099354;28;20363;-64
2021/12/12 01:12:05;;;;;;;11.00;8.10;;;;;20.80;100998.00;;;;2096224;28;20239;-63
2021/12/12 01:13:06;;;;;;;12.02;8.00;;;;;20.80;101001.00;;;;2097305;28;20224;-64
2021/12/12 01:14:09;;;;;;;11.30;8.47;;;;;20.80;101002.00;;;;2099948;28;20216;-63
2021/12/12 01:15:16;;;;;;;11.35;8.60;;;;;20.80;101009.00;;;;2100021;28;20455;-64
2021/12/12 01:16:34;;;;;;;10.20;8.02;;;;;20.80;100996.00;;;;2100037;28;20302;-64
2021/12/12 01:17:39;;;;;;;9.90;7.78;;;;;20.80;100998.00;;;;2088137;28;21181;-64
2021/12/12 01:18:42;;;;;;;12.05;8.38;;;;;20.80;101000.00;;;;2091280;28;20254;-63
2021/12/12 01:19:45;;;;;;;10.35;7.93;;;;;20.80;101002.00;;;;2081553;28;20308;-64
2021/12/12 01:20:57;;;;;;;10.45;7.75;;;;;20.80;100998.00;;;;2078936;28;20227;-63
2021/12/12 01:22:01;;;;;;;9.93;7.00;;;;;20.80;100999.00;;;;2099732;28;20215;-64
2021/12/12 01:23:06;;;;;;;8.73;6.90;;;;;20.80;101005.00;;;;2099692;28;20215;-64
2021/12/12 01:24:08;;;;;;;8.40;6.82;;;;;20.80;101003.00;;;;2077159;28;20216;-63
2021/12/12 01:25:18;;;;;;;10.18;7.00;;;;;20.80;101002.00;;;;2082765;28;20288;-63
2021/12/12 01:26:18;;;;;;;9.95;7.22;;;;;20.80;101003.00;;;;2092196;28;20232;-64
2021/12/12 01:27:19;;;;;;;9.40;6.67;;;;;20.80;101002.00;;;;2099566;28;20212;-64
2021/12/12 01:28:21;;;;;;;10.50;7.23;;;;;20.80;100995.00;;;;2099586;28;20258;-64
2021/12/12 01:29:22;;;;;;;8.82;7.10;;;;;20.80;101006.00;;;;2099838;28;20230;-64
2021/12/12 01:30:22;;;;;;;11.53;7.57;;;;;20.80;101000.00;;;;2099543;28;20299;-64
2021/12/12 01:31:28;;;;;;;10.47;7.23;;;;;20.80;101002.00;;;;2091101;28;20208;-64
2021/12/12 01:32:32;;;;;;;8.40;6.32;;;;;20.80;101012.00;;;;2091948;28;20208;-64
2021/12/12 01:33:34;;;;;;;8.43;6.22;;;;;20.70;101009.00;;;;2099820;28;20212;-64
2021/12/12 01:34:35;;;;;;;8.43;7.10;;;;;20.70;101008.00;;;;2099694;28;20306;-64
2021/12/12 01:35:37;;;;;;;7.90;6.40;;;;;20.70;101010.00;;;;2090905;28;20714;-64
2021/12/12 01:39:23;;;;;;;7.50;5.53;;;;;20.70;101008.00;;;;2095100;28;20207;-64
2021/12/12 01:40:25;;;;;;;9.67;6.40;;;;;20.70;101009.00;;;;2089532;28;20223;-64
2021/12/12 01:41:32;;;;;;;10.00;6.72;;;;;20.70;101001.00;;;;2095072;28;20211;-64
2021/12/12 01:42:42;;;;;;;9.68;6.97;;;;;20.70;101004.00;;;;2099147;28;20230;-64
2021/12/12 01:43:45;;;;;;;9.00;5.82;;;;;20.70;101006.00;;;;2090691;28;20272;-63
2021/12/12 01:44:49;;;;;;;8.68;6.10;;;;;20.70;101013.00;;;;2090594;28;20263;-64
2021/12/12 01:45:53;;;;;;;7.55;5.38;;;;;20.70;101007.00;;;;2083462;28;20225;-64
2021/12/12 01:47:18;;;;;;;6.45;5.63;;;;;20.70;101006.00;;;;2083943;28;20209;-64
2021/12/12 01:48:20;;;;;;;7.18;5.32;;;;;20.70;101007.00;;;;2092114;28;20207;-63
2021/12/12 01:49:22;;;;;;;6.28;5.20;;;;;20.70;101008.00;;;;2091142;28;20900;-64
2021/12/12 01:50:44;;;;;;;7.68;6.03;;;;;20.70;101002.00;;;;2091038;28;20696;-64
2021/12/12 01:51:46;;;;;;;6.55;5.03;;;;;20.70;101001.00;;;;2097762;28;20326;-63
2021/12/12 01:52:47;;;;;;;7.80;5.40;;;;;20.60;101002.00;;;;2100008;28;20220;-64
2021/12/12 01:53:49;;;;;;;7.90;5.73;;;;;20.60;101005.00;;;;2082493;28;20237;-64
2021/12/12 01:54:54;;;;;;;6.72;4.93;;;;;20.60;101011.00;;;;2074673;28;20301;-64
2021/12/12 01:56:08;;;;;;;6.55;5.15;;;;;20.60;101006.00;;;;2088176;28;20307;-64
2021/12/12 01:57:08;;;;;;;7.47;5.50;;;;;20.60;101003.00;;;;2089869;28;20222;-64
2021/12/12 01:58:18;;;;;;;6.30;4.87;;;;;20.60;100996.00;;;;2090573;28;20221;-64
2021/12/12 01:59:19;;;;;;;7.43;5.22;;;;;20.60;101000.00;;;;2088437;28;20298;-65
2021/12/12 02:00:44;;;;;;;8.02;5.20;;;;;20.60;101003.00;;;;2099237;28;20323;-64
2021/12/12 02:01:47;;;;;;;6.90;4.65;;;;;20.60;100998.00;;;;2091150;28;20259;-64
2021/12/12 02:02:48;;;;;;;5.72;4.32;;;;;20.60;101002.00;;;;2099606;28;20688;-64
2021/12/12 02:03:52;;;;;;;5.83;4.83;;;;;20.60;100998.00;;;;2099917;28;20220;-64
2021/12/12 02:04:55;;;;;;;6.97;4.55;;;;;20.60;100996.00;;;;2091133;28;20232;-64
2021/12/12 02:05:56;;;;;;;5.60;4.30;;;;;20.60;100999.00;;;;2087692;28;20239;-64
2021/12/12 02:06:56;;;;;;;5.30;4.03;;;;;20.60;100995.00;;;;2099936;28;20706;-63
2021/12/12 02:08:02;;;;;;;7.70;4.40;;;;;20.60;101005.00;;;;2082634;28;20241;-64
2021/12/12 02:09:04;;;;;;;7.22;4.90;;;;;20.60;100999.00;;;;2083391;28;20715;-64
2021/12/12 02:10:11;;;;;;;8.05;4.60;;;;;20.60;100990.00;;;;2083223;28;20217;-64
2021/12/12 02:11:15;;;;;;;5.75;4.20;;;;;20.60;100993.00;;;;2091550;28;20707;-64
2021/12/12 02:12:18;;;;;;;4.32;3.90;;;;;20.60;100989.00;;;;2100218;28;20851;-62
2021/12/12 02:13:19;;;;;;;5.68;3.95;;;;;20.60;100994.00;;;;2091303;28;20212;-62
2021/12/12 02:14:20;;;;;;;6.63;4.57;;;;;20.60;100992.00;;;;2083026;28;20217;-62
2021/12/12 02:15:20;;;;;;;8.30;4.90;;;;;20.60;100985.00;;;;2083041;28;20209;-62
2021/12/12 02:16:21;;;;;;;7.70;4.40;;;;;20.60;100977.00;;;;2082906;28;20463;-62
2021/12/12 02:17:29;;;;;;;5.35;4.47;;;;;20.60;100981.00;;;;2082954;28;20579;-62
2021/12/12 02:18:34;;;;;;;5.90;4.28;;;;;20.60;100991.00;;;;2096572;28;20207;-62
2021/12/12 02:19:56;;;;;;;4.63;3.55;;;;;20.40;100993.00;;;;2100345;28;20215;-61
2021/12/12 02:21:14;;;;;;;4.72;3.80;;;;;20.50;100992.00;;;;2097818;28;20242;-62
2021/12/12 02:22:52;;;;;;;5.25;3.60;;;;;20.60;100992.00;;;;2092162;28;20668;-62
2021/12/12 02:35:06;;;;;;;6.00;4.25;;;;;20.50;100985.00;;;;2097320;28;20747;-62
2021/12/12 02:36:44;;;;;;;3.93;3.10;;;;;20.50;100990.00;;;;2092280;28;20225;-62
2021/12/12 02:37:44;;;;;;;4.80;3.33;;;;;20.50;100984.00;;;;2083450;28;20347;-62
2021/12/12 02:38:45;;;;;;;4.73;3.60;;;;;20.50;100989.00;;;;2090048;28;20228;-64
2021/12/12 02:39:46;;;;;;;4.55;3.47;;;;;20.40;100985.00;;;;2101179;28;20318;-62
2021/12/12 02:40:49;;;;;;;4.87;3.60;;;;;20.50;100989.00;;;;2092184;28;20213;-62
2021/12/12 02:41:52;;;;;;;5.22;3.50;;;;;20.50;100985.00;;;;2092975;28;20223;-63
2021/12/12 02:42:53;;;;;;;4.30;3.70;;;;;20.50;100985.00;;;;2100631;28;20223;-63
2021/12/12 02:43:56;;;;;;;4.23;2.97;;;;;20.50;100982.00;;;;2101601;28;20694;-63
2021/12/12 02:44:59;;;;;;;5.13;3.35;;;;;20.50;100982.00;;;;2088841;28;20208;-63
2021/12/12 02:46:00;;;;;;;4.45;3.22;;;;;20.50;100986.00;;;;2092532;28;20208;-62
2021/12/12 02:47:08;;;;;;;6.70;3.30;;;;;20.50;100976.00;;;;2101167;28;20706;-63
2021/12/12 02:48:16;;;;;;;4.53;3.40;;;;;20.50;100976.00;;;;2101140;28;20219;-63
2021/12/12 02:50:41;;;;;;;3.30;2.35;;;;;20.40;100981.00;;;;2100808;28;20195;-63
2021/12/12 02:51:42;;;;;;;4.55;2.95;;;;;20.40;100981.00;;;;2097804;28;20230;-63
2021/12/12 02:52:55;;;;;;;5.30;3.50;;;;;20.50;100977.00;;;;2101107;28;20222;-63
2021/12/12 02:53:55;;;;;;;5.05;3.00;;;;;20.40;100983.00;;;;2100920;28;20695;-63
2021/12/12 02:54:57;;;;;;;5.53;2.90;;;;;20.40;100981.00;;;;2101246;28;20213;-63
2021/12/12 02:56:00;;;;;;;4.72;3.10;;;;;20.40;100980.00;;;;2087575;28;20219;-63
2021/12/12 02:57:01;;;;;;;5.25;3.50;;;;;20.40;100983.00;;;;2092359;28;20262;-62
2021/12/12 02:58:02;;;;;;;4.20;3.80;;;;;20.40;100985.00;;;;2100996;28;20639;-63
2021/12/12 02:59:07;;;;;;;4.00;2.67;;;;;20.40;100984.00;;;;2101138;28;20212;-62
2021/12/12 03:00:09;;;;;;;4.57;2.83;;;;;20.40;100976.00;;;;2091990;28;20566;-63
2021/12/12 03:01:18;;;;;;;4.60;2.90;;;;;20.40;100977.00;;;;2091929;28;20257;-63
2021/12/12 03:02:23;;;;;;;4.85;3.58;;;;;20.40;100975.00;;;;2097984;28;20214;-63
2021/12/12 03:03:26;;;;;;;4.07;2.90;;;;;20.40;100983.00;;;;2100939;28;20231;-63
2021/12/12 03:04:27;;;;;;;4.03;2.67;;;;;20.40;100974.00;;;;2101053;28;20270;-63
2021/12/12 03:05:29;;;;;;;3.60;2.63;;;;;20.40;100969.00;;;;2101011;28;20208;-63
2021/12/12 03:06:31;;;;;;;3.50;2.75;;;;;20.40;100968.00;;;;2100900;28;20574;-63
2021/12/12 03:07:31;;;;;;;4.80;2.65;;;;;20.40;100975.00;;;;2101194;28;20231;-62
2021/12/12 03:08:31;;;;;;;3.37;2.47;;;;;20.40;100973.00;;;;2100539;28;20628;-63
2021/12/12 03:09:38;;;;;;;3.27;2.50;;;;;20.40;100979.00;;;;2101453;28;20567;-62
2021/12/12 03:10:40;;;;;;;5.00;3.22;;;;;20.40;100980.00;;;;2101107;28;20200;-63
2021/12/12 03:11:41;;;;;;;4.80;3.03;;;;;20.40;100976.00;;;;2101249;28;20559;-62
2021/12/12 03:12:41;;;;;;;4.20;2.83;;;;;20.40;100970.00;;;;2101194;28;20218;-62
2021/12/12 03:13:41;;;;;;;2.80;2.27;;;;;20.40;100982.00;;;;2101315;28;20662;-62
2021/12/12 03:14:42;;;;;;;3.63;2.40;;;;;20.40;100965.00;;;;2101012;28;20228;-63
2021/12/12 03:15:42;;;;;;;2.80;2.40;;;;;20.40;100971.00;;;;2100951;28;20216;-62
2021/12/12 03:16:43;;;;;;;6.20;2.40;;;;;20.40;100974.00;;;;2100788;28;20348;-62
2021/12/12 03:17:44;;;;;;;3.60;2.57;;;;;20.40;100974.00;;;;2100912;28;20219;-63
2021/12/12 03:18:45;;;;;;;4.13;2.88;;;;;20.40;100974.00;;;;2100890;28;21092;-63
2021/12/12 03:20:04;;;;;;;3.70;2.63;;;;;20.40;100980.00;;;;2100670;28;20211;-62
2021/12/12 03:21:14;;;;;;;2.95;2.35;;;;;20.40;100983.00;;;;2097678;28;20203;-62
2021/12/12 03:22:17;;;;;;;4.55;2.70;;;;;20.30;100979.00;;;;2100752;28;20216;-63
2021/12/12 03:23:26;;;;;;;3.75;2.35;;;;;20.30;100976.00;;;;2100902;28;20556;-62
2021/12/12 03:24:27;;;;;;;3.05;2.40;;;;;20.40;100987.00;;;;2097505;28;20219;-63
2021/12/12 03:25:27;;;;;;;4.10;2.60;;;;;20.40;100983.00;;;;2100674;28;20215;-62
2021/12/12 03:26:28;;;;;;;3.07;2.23;;;;;20.30;100984.00;;;;2083491;28;20466;-62
2021/12/12 03:27:29;;;;;;;4.63;3.03;;;;;20.30;100979.00;;;;2083746;28;20219;-62
2021/12/12 03:28:30;;;;;;;3.37;2.80;;;;;20.30;100977.00;;;;2100679;28;20239;-63
2021/12/12 03:29:31;;;;;;;4.45;2.40;;;;;20.30;100985.00;;;;2100705;28;20311;-62
2021/12/12 03:30:31;;;;;;;3.73;2.60;;;;;20.30;100978.00;;;;2100303;28;20274;-62
2021/12/12 03:31:34;;;;;;;4.07;2.20;;;;;20.30;100980.00;;;;2100988;28;20223;-63
2021/12/12 03:32:34;;;;;;;3.90;2.65;;;;;20.40;100985.00;;;;2101061;28;20307;-62
2021/12/12 03:33:35;;;;;;;3.23;2.30;;;;;20.40;100979.00;;;;2100970;28;20200;-63
2021/12/12 03:34:38;;;;;;;3.50;2.30;;;;;20.30;100976.00;;;;2101120;28;20290;-62
2021/12/12 03:35:38;;;;;;;3.53;2.25;;;;;20.30;100973.00;;;;2092156;28;20275;-63
2021/12/12 03:36:38;;;;;;;3.60;2.73;;;;;20.30;100967.00;;;;2092190;28;20219;-63
2021/12/12 03:37:39;;;;;;;3.13;2.23;;;;;20.30;100977.00;;;;2101022;28;20292;-63
2021/12/12 03:38:43;;;;;;;2.90;2.20;;;;;20.30;100973.00;;;;2100727;28;20211;-63
2021/12/12 03:39:44;;;;;;;3.85;2.50;;;;;20.30;100974.00;;;;2096869;28;20299;-63
2021/12/12 03:40:45;;;;;;;3.20;2.28;;;;;20.30;100971.00;;;;2100417;28;20225;-63
2021/12/12 03:41:46;;;;;;;3.50;2.40;;;;;20.30;100978.00;;;;2091840;28;20215;-63
2021/12/12 03:42:47;;;;;;;3.60;2.30;;;;;20.30;100970.00;;;;2091198;28;20488;-62
2021/12/12 03:43:58;;;;;;;3.10;2.10;;;;;20.30;100980.00;;;;2100624;28;20225;-62
2021/12/12 03:44:58;;;;;;;2.70;1.90;;;;;20.30;100974.00;;;;2100517;28;20212;-63
2021/12/12 03:45:59;;;;;;;5.23;2.33;;;;;20.30;100974.00;;;;2100978;28;20714;-62
2021/12/12 03:47:06;;;;;;;3.00;2.20;;;;;20.30;100971.00;;;;2100860;28;20463;-63
2021/12/12 03:48:08;;;;;;;2.70;2.20;;;;;20.30;100980.00;;;;2100915;28;20215;-63
2021/12/12 03:49:09;;;;;;;5.50;2.60;;;;;20.30;100970.00;;;;2092092;28;20703;-63
2021/12/12 03:50:12;;;;;;;3.87;1.90;;;;;20.30;100968.00;;;;2083703;28;20212;-62
2021/12/12 03:51:15;;;;;;;3.58;2.13;;;;;20.30;100975.00;;;;2092140;28;20216;-62
2021/12/12 03:52:16;;;;;;;3.53;2.30;;;;;20.30;100974.00;;;;2079839;28;20746;-62
2021/12/12 03:53:17;;;;;;;3.20;2.20;;;;;20.30;100967.00;;;;2075545;28;20292;-62
2021/12/12 03:54:17;;;;;;;2.97;2.27;;;;;20.30;100976.00;;;;2091485;28;20208;-62
2021/12/12 03:55:17;;;;;;;2.70;1.90;;;;;20.30;100966.00;;;;2099167;28;20302;-62
2021/12/12 03:56:18;;;;;;;5.27;2.00;;;;;20.30;100973.00;;;;2100544;28;20207;-62
2021/12/12 03:57:19;;;;;;;2.87;2.20;;;;;20.20;100976.00;;;;2100258;28;20224;-62
2021/12/12 03:58:19;;;;;;;2.60;1.88;;;;;20.20;100963.00;;;;2100536;28;20583;-62
2021/12/12 03:59:20;;;;;;;4.10;2.50;;;;;20.30;100970.00;;;;2100493;28;20215;-62
2021/12/12 04:00:29;;;;;;;3.67;2.10;;;;;20.30;100966.00;;;;2100292;28;20212;-62
2021/12/12 04:01:32;;;;;;;2.67;2.20;;;;;20.30;100972.00;;;;2097423;28;20281;-63
2021/12/12 04:02:32;;;;;;;3.45;2.00;;;;;20.30;100970.00;;;;2100614;28;20574;-62
2021/12/12 04:03:32;;;;;;;3.80;1.90;;;;;20.20;100971.00;;;;2100549;28;20215;-62
2021/12/12 04:04:36;;;;;;;3.10;1.97;;;;;20.20;100979.00;;;;2100540;28;20667;-63
2021/12/12 04:05:36;;;;;;;2.83;1.95;;;;;20.20;100972.00;;;;2100503;28;20269;-62
2021/12/12 04:06:36;;;;;;;2.20;1.83;;;;;20.20;100965.00;;;;2100433;28;20610;-63
2021/12/12 04:07:37;;;;;;;3.20;2.10;;;;;20.30;100965.00;;;;2096565;28;20225;-62
2021/12/12 04:08:39;;;;;;;3.70;2.40;;;;;20.20;100965.00;;;;2099117;28;20219;-63
2021/12/12 04:09:39;;;;;;;3.58;1.83;;;;;20.30;100963.00;;;;2099887;28;20219;-63
2021/12/12 04:10:40;;;;;;;4.43;2.27;;;;;20.30;100965.00;;;;2100264;28;20761;-63
2021/12/12 04:11:44;;;;;;;3.27;1.97;;;;;20.30;100967.00;;;;2099614;28;20225;-63
2021/12/12 04:12:45;;;;;;;2.80;2.00;;;;;20.20;100973.00;;;;2100464;28;20946;-63
2021/12/12 04:13:46;;;;;;;4.20;2.03;;;;;20.20;100957.00;;;;2099853;28;20224;-62
2021/12/12 04:14:47;;;;;;;2.92;2.03;;;;;20.20;100967.00;;;;2100388;28;20219;-62
2021/12/12 04:15:54;;;;;;;3.80;1.93;;;;;20.20;100970.00;;;;2096419;28;20211;-62
2021/12/12 04:16:56;;;;;;;3.22;1.90;;;;;20.20;100962.00;;;;2100355;28;20207;-63
2021/12/12 04:17:57;;;;;;;2.92;2.20;;;;;20.20;100961.00;;;;2091438;28;20315;-63
2021/12/12 04:18:57;;;;;;;3.70;2.03;;;;;20.20;100963.00;;;;2083180;28;20691;-62
2021/12/12 04:20:00;;;;;;;2.80;1.97;;;;;20.20;100962.00;;;;2091447;28;20684;-63
2021/12/12 04:21:03;;;;;;;3.00;1.95;;;;;20.20;100959.00;;;;2090048;28;20220;-62
2021/12/12 04:22:03;;;;;;;3.25;1.73;;;;;20.20;100971.00;;;;2087727;28;20223;-62
2021/12/12 04:23:13;;;;;;;3.10;1.83;;;;;20.20;100966.00;;;;2100120;28;20200;-62
2021/12/12 04:24:21;;;;;;;3.53;1.80;;;;;20.20;100970.00;;;;2090619;28;20212;-63
2021/12/12 04:25:22;;;;;;;4.60;2.05;;;;;20.20;100964.00;;;;2093868;28;20339;-62
2021/12/12 04:26:28;;;;;;;2.60;1.70;;;;;20.20;100971.00;;;;2096415;28;20215;-62
2021/12/12 04:27:28;;;;;;;2.45;1.77;;;;;20.20;100971.00;;;;2100251;28;20207;-62
2021/12/12 04:28:28;;;;;;;3.70;2.07;;;;;20.20;100975.00;;;;2100190;28;20215;-62
2021/12/12 04:29:40;;;;;;;2.80;1.77;;;;;20.20;100975.00;;;;2100295;28;20264;-62
2021/12/12 04:30:40;;;;;;;3.92;2.38;;;;;20.20;100974.00;;;;2099721;28;20215;-63
2021/12/12 04:31:43;;;;;;;2.70;1.70;;;;;20.20;100969.00;;;;2100404;28;20222;-63
2021/12/12 04:32:44;;;;;;;3.25;1.95;;;;;20.20;100972.00;;;;2100732;28;20209;-62
2021/12/12 04:33:44;;;;;;;2.60;2.03;;;;;20.20;100967.00;;;;2100646;28;20298;-62
2021/12/12 04:34:52;;;;;;;2.87;1.80;;;;;20.20;100969.00;;;;2100613;28;20216;-62
2021/12/12 04:35:53;;;;;;;2.83;1.63;;;;;20.20;100960.00;;;;2100655;28;20207;-62
2021/12/12 04:36:53;;;;;;;4.17;2.07;;;;;20.20;100966.00;;;;2100600;28;20215;-62
2021/12/12 04:37:55;;;;;;;3.03;2.03;;;;;20.20;100968.00;;;;2099745;28;20211;-62
2021/12/12 04:39:16;;;;;;;4.30;2.10;;;;;20.20;100967.00;;;;2100116;28;20223;-62
2021/12/12 04:40:17;;;;;;;3.72;1.50;;;;;20.20;100970.00;;;;2099698;28;20211;-62
2021/12/12 04:41:22;;;;;;;3.53;1.80;;;;;20.10;100962.00;;;;2096244;28;20235;-63
2021/12/12 04:42:40;;;;;;;3.00;2.03;;;;;20.20;100973.00;;;;2099660;28;20199;-62
2021/12/12 04:43:41;;;;;;;3.55;1.80;;;;;20.20;100981.00;;;;2100012;28;20303;-62
2021/12/12 04:44:42;;;;;;;2.60;1.80;;;;;20.10;100970.00;;;;2097530;28;20224;-62
2021/12/12 04:45:52;;;;;;;2.67;1.50;;;;;20.20;100961.00;;;;2100553;28;20459;-63
2021/12/12 04:50:15;;;;;;;2.55;1.55;;;;;20.10;100956.00;;;;2097410;28;20211;-62
2021/12/12 04:51:39;;;;;;;2.42;2.00;;;;;20.10;100966.00;;;;2100137;28;20578;-62
2021/12/12 04:53:21;;;;;;;2.40;1.77;;;;;20.10;100964.00;;;;2098665;28;20220;-63
2021/12/12 04:54:24;;;;;;;2.85;1.80;;;;;20.10;100965.00;;;;2096374;28;20211;-63
2021/12/12 04:55:34;;;;;;;2.28;1.30;;;;;20.10;100961.00;;;;2100205;28;20219;-63
2021/12/12 04:56:56;;;;;;;2.38;1.45;;;;;20.10;100970.00;;;;2099899;28;20675;-62
2021/12/12 04:58:02;;;;;;;2.45;1.52;;;;;20.10;100960.00;;;;2089577;28;20294;-63
2021/12/12 04:59:07;;;;;;;2.30;1.70;;;;;20.20;100961.00;;;;2092207;28;20248;-63
2021/12/12 05:00:11;;;;;;;3.25;2.10;;;;;20.10;100967.00;;;;2090235;28;20212;-63
2021/12/12 05:01:23;;;;;;;4.95;1.90;;;;;20.20;100968.00;;;;2090990;28;20236;-62
2021/12/12 05:02:37;;;;;;;4.32;1.73;;;;;20.10;100974.00;;;;2091003;28;20208;-62
2021/12/12 05:04:00;;;;;;;3.42;1.95;;;;;20.20;100967.00;;;;2075866;28;20220;-63
2021/12/12 05:05:23;;;;;;;6.38;1.92;;;;;20.10;100965.00;;;;2090532;28;20216;-62
2021/12/12 05:06:29;;;;;;;2.65;1.50;;;;;20.10;100958.00;;;;2087982;28;20211;-62
2021/12/12 05:07:30;;;;;;;2.80;1.60;;;;;20.10;100959.00;;;;2091983;28;20265;-63
2021/12/12 05:08:50;;;;;;;1.80;1.65;;;;;20.10;100965.00;;;;2100076;28;20742;-62
2021/12/12 05:09:53;;;;;;;2.50;1.48;;;;;20.10;100961.00;;;;2097481;28;20211;-62
2021/12/12 05:10:57;;;;;;;2.25;1.77;;;;;20.10;100962.00;;;;2099768;28;20219;-63
2021/12/12 05:12:04;;;;;;;3.40;1.85;;;;;20.10;100942.00;;;;2099990;28;20212;-63
2021/12/12 05:13:27;;;;;;;2.75;1.67;;;;;20.10;100962.00;;;;2082797;28;20709;-63
2021/12/12 05:14:31;;;;;;;3.22;1.85;;;;;20.10;100962.00;;;;2074031;28;20224;-62
2021/12/12 05:15:34;;;;;;;3.95;1.80;;;;;20.10;100960.00;;;;2076940;28;20209;-63
2021/12/12 05:16:38;;;;;;;2.92;1.80;;;;;20.10;100956.00;;;;2091129;28;20394;-63
2021/12/12 05:17:43;;;;;;;3.35;1.80;;;;;20.10;100956.00;;;;2089351;28;20684;-63
2021/12/12 05:18:50;;;;;;;2.75;1.60;;;;;20.10;100955.00;;;;2076378;28;20214;-63
2021/12/12 05:19:58;;;;;;;2.17;1.77;;;;;20.10;100953.00;;;;2072857;28;20220;-63
2021/12/12 05:21:07;;;;;;;3.78;1.77;;;;;20.10;100942.00;;;;2076796;28;20724;-63
2021/12/12 05:22:18;;;;;;;3.92;1.58;;;;;20.10;100952.00;;;;2089170;28;20213;-63
2021/12/12 05:23:19;;;;;;;2.67;1.30;;;;;20.10;100946.00;;;;2069177;28;20728;-63
2021/12/12 05:24:21;;;;;;;4.72;1.38;;;;;20.10;100949.00;;;;2057938;28;20775;-63
2021/12/12 05:25:24;;;;;;;3.17;1.85;;;;;20.10;100959.00;;;;2074713;28;20716;-63
2021/12/12 05:26:38;;;;;;;3.08;1.77;;;;;20.10;100941.00;;;;2082564;28;20643;-63
2021/12/12 05:27:38;;;;;;;4.07;1.80;;;;;20.10;100963.00;;;;2073889;28;20291;-63
2021/12/12 05:28:47;;;;;;;2.30;1.50;;;;;20.10;100954.00;;;;2062541;28;20218;-63
2021/12/12 05:30:14;;;;;;;3.35;2.03;;;;;20.00;100954.00;;;;2079107;28;20225;-63
2021/12/12 05:31:15;;;;;;;2.65;1.40;;;;;20.00;100959.00;;;;2088775;28;20303;-63
2021/12/12 05:32:15;;;;;;;2.67;1.53;;;;;20.00;100955.00;;;;2083053;28;20225;-63
2021/12/12 05:33:15;;;;;;;2.43;1.40;;;;;20.00;100962.00;;;;2083344;28;20237;-63
2021/12/12 05:34:17;;;;;;;4.03;1.80;;;;;20.00;100952.00;;;;2091321;28;20215;-63
2021/12/12 05:35:19;;;;;;;3.25;1.77;;;;;20.10;100953.00;;;;2075022;28;20590;-63